Time;durP1;ratioP1;P1;durP2;ratioP2;P2;SDS_P1;SDS_P2;PMS_P1;PMS_P2;Temp;Humidity;BMP_temperature;BMP_pressure;BME280_temperature;BME280_humidity;BME280_pressure;Samples;Min_cycle;Max_cycle;Signal;HPM_P1;HPM_P2
2023/05/27 00:00:38;;;;;;;;;;;;;;;14.74;48.18;98803.72;5070306;28;19970;-61
2023/05/27 00:03:08;;;;;;;;;;;;;;;14.62;48.22;98803.50;5070570;28;19935;-59
2023/05/27 00:05:35;;;;;;;;;;;;;;;14.65;48.29;98794.69;5062926;28;19956;-59
2023/05/27 00:08:03;;;;;;;;;;;;;;;14.51;48.13;98797.53;5067259;28;19967;-59
2023/05/27 00:10:31;;;;;;;;;;;;;;;14.66;48.33;98797.09;5064177;28;19960;-59
2023/05/27 00:12:59;;;;;;;;;;;;;;;14.52;47.93;98793.66;5061839;28;19963;-62
2023/05/27 00:15:26;;;;;;;;;;;;;;;14.68;47.62;98789.38;5066808;28;20307;-59
2023/05/27 00:17:54;;;;;;;;;;;;;;;14.72;47.32;98794.22;5067536;28;19933;-62
2023/05/27 00:20:24;;;;;;;;;;;;;;;14.96;46.91;98794.59;5071528;28;19928;-60
2023/05/27 00:22:52;;;;;;;;;;;;;;;14.97;46.55;98790.75;5065671;28;19947;-59
2023/05/27 00:25:21;;;;;;;;;;;;;;;14.72;46.63;98792.28;5064499;28;19959;-60
2023/05/27 00:27:48;;;;;;;;;;;;;;;14.72;46.02;98789.56;5068284;28;19946;-61
2023/05/27 00:30:16;;;;;;;;;;;;;;;14.88;45.38;98789.91;5064583;28;20015;-59
2023/05/27 00:32:44;;;;;;;;;;;;;;;14.74;45.26;98787.28;5045660;28;20730;-60
2023/05/27 00:35:12;;;;;;;;;;;;;;;14.60;44.82;98795.63;5054815;28;20362;-60
2023/05/27 00:37:41;;;;;;;;;;;;;;;14.77;44.49;98783.94;5051324;28;19924;-59
2023/05/27 00:40:10;;;;;;;;;;;;;;;14.40;45.11;98788.75;5050300;28;19963;-59
2023/05/27 00:42:37;;;;;;;;;;;;;;;14.42;44.85;98786.50;5063465;28;19963;-59
2023/05/27 00:45:06;;;;;;;;;;;;;;;14.50;44.63;98795.09;5046894;28;19959;-59
2023/05/27 00:47:34;;;;;;;;;;;;;;;14.38;44.71;98790.16;5062408;28;20015;-59
2023/05/27 00:50:01;;;;;;;;;;;;;;;14.38;44.74;98788.28;5068052;28;20293;-60
2023/05/27 00:52:29;;;;;;;;;;;;;;;14.56;44.33;98786.44;5044674;28;19920;-60
2023/05/27 00:54:59;;;;;;;;;;;;;;;14.59;44.39;98791.25;5061346;28;19920;-59
2023/05/27 00:57:27;;;;;;;;;;;;;;;14.52;44.75;98788.19;5056915;28;19924;-59
2023/05/27 00:59:55;;;;;;;;;;;;;;;14.50;45.59;98795.91;5060228;28;19932;-59
2023/05/27 01:02:23;;;;;;;;;;;;;;;14.72;44.90;98788.75;5099109;22;19940;-94
2023/05/27 01:04:55;;;;;;;;;;;;;;;14.74;44.97;98786.50;5056857;28;19925;-93
2023/05/27 01:07:23;;;;;;;;;;;;;;;14.75;44.76;98783.44;5056131;28;19929;-91
2023/05/27 01:09:54;;;;;;;;;;;;;;;14.75;44.82;98788.09;5052711;28;19924;-91
2023/05/27 01:12:26;;;;;;;;;;;;;;;14.81;44.93;98786.84;5038576;28;19925;-94
2023/05/27 01:14:55;;;;;;;;;;;;;;;14.53;45.69;98787.06;5052757;28;19924;-94
2023/05/27 01:17:24;;;;;;;;;;;;;;;14.21;46.70;98781.91;5053809;28;19929;-93
2023/05/27 01:19:52;;;;;;;;;;;;;;;14.09;47.00;98780.56;5063308;28;19932;-92
2023/05/27 01:22:21;;;;;;;;;;;;;;;14.40;46.31;98779.75;5066155;28;20012;-96
2023/05/27 01:24:51;;;;;;;;;;;;;;;14.48;46.27;98776.25;5054410;28;19924;-96
2023/05/27 01:27:20;;;;;;;;;;;;;;;14.53;46.32;98776.13;5068566;28;19926;-93
2023/05/27 01:29:49;;;;;;;;;;;;;;;14.61;46.19;98778.09;5061594;28;19979;-92
2023/05/27 01:32:18;;;;;;;;;;;;;;;14.55;46.61;98778.56;5063437;28;19924;-96
2023/05/27 01:34:48;;;;;;;;;;;;;;;14.50;46.71;98779.50;5055083;28;19925;-96
2023/05/27 01:37:17;;;;;;;;;;;;;;;14.43;47.08;98781.84;5049929;28;19928;-90
2023/05/27 01:39:47;;;;;;;;;;;;;;;14.50;47.04;98770.50;5048171;28;19924;-91
2023/05/27 01:42:16;;;;;;;;;;;;;;;14.48;47.42;98773.53;5066043;28;19974;-90
2023/05/27 01:44:45;;;;;;;;;;;;;;;14.49;47.40;98768.88;5065139;28;20372;-91
2023/05/27 01:47:13;;;;;;;;;;;;;;;14.40;47.76;98768.81;5055953;28;20431;-92
2023/05/27 01:49:41;;;;;;;;;;;;;;;14.35;48.05;98768.94;5060208;28;19924;-93
2023/05/27 01:52:09;;;;;;;;;;;;;;;14.30;48.33;98761.69;5058666;28;19933;-92
2023/05/27 01:54:37;;;;;;;;;;;;;;;14.24;48.58;98762.97;5064209;28;19929;-93
2023/05/27 01:57:08;;;;;;;;;;;;;;;14.23;48.59;98757.81;5057247;28;19947;-96
2023/05/27 01:59:38;;;;;;;;;;;;;;;14.18;48.87;98757.94;5059288;28;19925;-96
2023/05/27 02:02:13;;;;;;;;;;;;;;;14.22;48.73;98753.44;5065378;28;19970;-96
2023/05/27 02:04:41;;;;;;;;;;;;;;;14.16;48.58;98759.03;5060399;28;19986;-95
2023/05/27 02:07:10;;;;;;;;;;;;;;;14.16;48.61;98760.97;5052899;28;19925;-96
2023/05/27 02:09:38;;;;;;;;;;;;;;;14.18;48.55;98758.75;5057284;28;19935;-96
2023/05/27 02:12:06;;;;;;;;;;;;;;;14.00;49.31;98757.03;5057212;28;19975;-96
2023/05/27 02:14:38;;;;;;;;;;;;;;;13.73;50.03;98752.53;5077908;28;19928;-96
2023/05/27 02:17:08;;;;;;;;;;;;;;;13.78;49.70;98760.59;5056680;28;19932;-95
2023/05/27 02:19:36;;;;;;;;;;;;;;;13.89;49.33;98751.03;5070771;28;19964;-95
2023/05/27 02:22:10;;;;;;;;;;;;;;;13.96;49.14;98758.81;5063514;28;19924;-92
2023/05/27 02:24:38;;;;;;;;;;;;;;;13.89;49.17;98751.81;5071689;28;19924;-93
2023/05/27 02:27:06;;;;;;;;;;;;;;;13.86;49.37;98748.94;5057397;28;19925;-96
2023/05/27 02:29:35;;;;;;;;;;;;;;;13.96;49.10;98758.81;5057058;28;20000;-96
2023/05/27 02:32:04;;;;;;;;;;;;;;;13.88;49.36;98758.41;5056752;28;20368;-90
2023/05/27 02:34:36;;;;;;;;;;;;;;;13.84;49.28;98760.16;5055613;28;19925;-90
2023/05/27 02:37:05;;;;;;;;;;;;;;;13.75;49.57;98762.03;5074565;28;19924;-96
2023/05/27 02:39:34;;;;;;;;;;;;;;;13.79;49.55;98762.19;5076137;28;19925;-96
2023/05/27 02:42:02;;;;;;;;;;;;;;;13.64;49.96;98755.22;5063745;28;19946;-95
2023/05/27 02:44:30;;;;;;;;;;;;;;;13.61;50.05;98762.09;5087965;28;19912;-95
2023/05/27 02:46:58;;;;;;;;;;;;;;;13.75;49.72;98750.31;5065874;28;19947;-90
2023/05/27 02:49:28;;;;;;;;;;;;;;;13.74;49.92;98752.25;5068981;28;19931;-90
2023/05/27 02:51:57;;;;;;;;;;;;;;;13.30;50.84;98751.09;5056389;28;19925;-91
2023/05/27 02:54:25;;;;;;;;;;;;;;;13.49;50.36;98750.94;5045014;28;19929;-89
2023/05/27 02:56:53;;;;;;;;;;;;;;;13.57;50.26;98752.91;5060010;28;20373;-90
2023/05/27 02:59:21;;;;;;;;;;;;;;;13.45;50.27;98743.66;5058369;28;19929;-90
2023/05/27 03:01:49;;;;;;;;;;;;;;;13.49;50.23;98752.84;5046649;28;19929;-94
2023/05/27 03:04:17;;;;;;;;;;;;;;;13.46;50.13;98745.28;5062097;28;19971;-94
2023/05/27 03:06:46;;;;;;;;;;;;;;;13.36;50.12;98749.03;5048652;28;19925;-95
2023/05/27 03:09:15;;;;;;;;;;;;;;;13.30;50.26;98740.16;5051460;28;20355;-94
2023/05/27 03:11:43;;;;;;;;;;;;;;;13.31;50.15;98752.69;5053761;28;19924;-96
2023/05/27 03:14:11;;;;;;;;;;;;;;;13.29;50.14;98744.03;5058832;28;19925;-95
2023/05/27 03:16:40;;;;;;;;;;;;;;;13.23;50.17;98739.00;5067768;28;19925;-96
2023/05/27 03:19:09;;;;;;;;;;;;;;;13.21;50.05;98738.44;5065503;28;19959;-96
2023/05/27 03:21:37;;;;;;;;;;;;;;;13.15;50.00;98736.97;5068270;28;19932;-90
2023/05/27 03:24:05;;;;;;;;;;;;;;;13.07;50.18;98742.03;5057054;28;19929;-90
2023/05/27 03:26:35;;;;;;;;;;;;;;;13.09;50.01;98739.00;5067152;23;19979;-59
2023/05/27 03:29:05;;;;;;;;;;;;;;;13.08;50.12;98743.66;5049864;28;19921;-59
2023/05/27 03:31:33;;;;;;;;;;;;;;;13.08;50.28;98737.38;5050021;28;20387;-59
2023/05/27 03:34:08;;;;;;;;;;;;;;;12.99;50.23;98739.22;5050588;28;19924;-59
2023/05/27 03:36:39;;;;;;;;;;;;;;;13.04;50.12;98741.84;5059842;28;19920;-59
2023/05/27 03:39:07;;;;;;;;;;;;;;;12.94;50.84;98742.88;5059047;28;19955;-58
2023/05/27 03:41:41;;;;;;;;;;;;;;;12.30;52.19;98733.84;5054724;28;20281;-61
2023/05/27 03:44:12;;;;;;;;;;;;;;;12.71;51.01;98741.19;5055118;28;19932;-59
2023/05/27 03:46:41;;;;;;;;;;;;;;;12.78;50.46;98736.13;5063931;28;19920;-59
2023/05/27 03:49:09;;;;;;;;;;;;;;;12.84;50.38;98743.91;5057636;28;19943;-59
2023/05/27 03:51:36;;;;;;;;;;;;;;;12.58;50.92;98740.91;5067073;28;19963;-59
2023/05/27 03:54:05;;;;;;;;;;;;;;;12.32;52.03;98747.97;5047489;28;19928;-60
2023/05/27 03:56:33;;;;;;;;;;;;;;;12.36;52.14;98740.81;5048691;28;20330;-59
2023/05/27 03:59:02;;;;;;;;;;;;;;;12.48;51.71;98735.66;5057664;28;19924;-62
2023/05/27 04:01:30;;;;;;;;;;;;;;;12.71;51.20;98749.38;5058179;28;19927;-58
2023/05/27 04:03:58;;;;;;;;;;;;;;;12.74;51.29;98743.31;5046960;28;19955;-65
2023/05/27 04:06:26;;;;;;;;;;;;;;;12.85;50.77;98742.78;5060167;28;19920;-59
2023/05/27 04:08:55;;;;;;;;;;;;;;;12.79;50.92;98746.75;5052502;28;19920;-63
2023/05/27 04:11:22;;;;;;;;;;;;;;;12.81;50.67;98746.44;5065185;28;19944;-58
2023/05/27 04:13:51;;;;;;;;;;;;;;;12.82;50.31;98748.03;5058939;28;19920;-58
2023/05/27 04:16:21;;;;;;;;;;;;;;;12.86;50.34;98746.31;5056561;28;20404;-58
2023/05/27 04:18:51;;;;;;;;;;;;;;;12.95;50.40;98749.16;5055648;28;20006;-59
2023/05/27 04:21:22;;;;;;;;;;;;;;;12.82;50.50;98751.56;5042082;28;20277;-58
2023/05/27 04:23:50;;;;;;;;;;;;;;;12.89;51.09;98745.72;5058040;28;19926;-58
2023/05/27 04:26:19;;;;;;;;;;;;;;;12.92;50.85;98755.22;5072123;28;20378;-59
2023/05/27 04:28:52;;;;;;;;;;;;;;;12.89;50.99;98753.06;5068708;28;20342;-59
2023/05/27 04:31:23;;;;;;;;;;;;;;;12.84;51.23;98751.28;5046930;28;19920;-58
2023/05/27 04:33:56;;;;;;;;;;;;;;;12.87;51.28;98752.59;5046344;28;20361;-61
2023/05/27 04:36:26;;;;;;;;;;;;;;;13.00;50.62;98760.75;5063483;28;19994;-59
2023/05/27 04:39:01;;;;;;;;;;;;;;;12.98;50.64;98760.25;5047465;28;19920;-59
2023/05/27 04:41:32;;;;;;;;;;;;;;;12.52;52.30;98761.22;5044766;28;19920;-58
2023/05/27 04:44:01;;;;;;;;;;;;;;;12.54;52.56;98760.91;5077407;28;19920;-58
2023/05/27 04:46:38;;;;;;;;;;;;;;;12.10;53.42;98764.22;5064585;28;19920;-58
2023/05/27 04:49:06;;;;;;;;;;;;;;;12.57;52.18;98763.84;5052715;28;19920;-59
2023/05/27 04:51:35;;;;;;;;;;;;;;;12.83;51.14;98761.38;5045860;28;19924;-58
2023/05/27 04:54:05;;;;;;;;;;;;;;;12.94;50.55;98767.41;5047800;28;19925;-59
2023/05/27 04:56:34;;;;;;;;;;;;;;;13.03;50.27;98775.69;5060426;28;19932;-59
2023/05/27 04:59:02;;;;;;;;;;;;;;;13.10;49.81;98757.81;5063528;28;19920;-59
2023/05/27 05:01:48;;;;;;;;;;;;;;;13.19;49.41;98760.59;5050419;28;19924;-58
2023/05/27 05:04:25;;;;;;;;;;;;;;;12.92;50.64;98753.28;5065338;28;19924;-61
2023/05/27 05:07:01;;;;;;;;;;;;;;;12.78;51.18;98760.66;5053240;28;19932;-58
2023/05/27 05:09:29;;;;;;;;;;;;;;;13.14;50.29;98759.91;5047048;28;19956;-58
2023/05/27 05:12:04;;;;;;;;;;;;;;;12.96;50.04;98767.94;5052265;28;19920;-60
2023/05/27 05:14:36;;;;;;;;;;;;;;;12.88;49.37;98765.09;5066143;28;19924;-59
2023/05/27 05:17:04;;;;;;;;;;;;;;;13.23;47.84;98771.75;5072244;28;20332;-59
2023/05/27 05:19:34;;;;;;;;;;;;;;;13.36;47.24;98766.22;5064277;28;20027;-60
2023/05/27 05:22:07;;;;;;;;;;;;;;;13.43;47.20;98776.72;5066696;28;19936;-58
2023/05/27 05:24:35;;;;;;;;;;;;;;;13.55;47.38;98768.78;5056835;28;19920;-61
2023/05/27 05:27:03;;;;;;;;;;;;;;;13.48;46.75;98771.16;5060937;28;19921;-59
2023/05/27 05:29:32;;;;;;;;;;;;;;;13.57;47.28;98774.75;5027242;28;19935;-60
2023/05/27 05:32:00;;;;;;;;;;;;;;;13.50;47.81;98773.56;5028821;28;19921;-59
2023/05/27 05:34:28;;;;;;;;;;;;;;;13.75;47.11;98777.63;5024084;28;19943;-59
2023/05/27 05:36:58;;;;;;;;;;;;;;;13.65;47.66;98777.88;5026945;28;19929;-59
2023/05/27 05:39:25;;;;;;;;;;;;;;;13.75;47.50;98783.88;5028557;28;19925;-60
2023/05/27 05:41:55;;;;;;;;;;;;;;;13.83;47.63;98779.59;5055208;28;19925;-60
2023/05/27 05:44:23;;;;;;;;;;;;;;;13.66;47.69;98784.94;5029728;28;20424;-60
2023/05/27 05:46:53;;;;;;;;;;;;;;;13.71;47.77;98779.34;5022592;28;20426;-60
2023/05/27 05:49:24;;;;;;;;;;;;;;;13.85;46.42;98777.38;5023466;28;20015;-59
2023/05/27 05:51:52;;;;;;;;;;;;;;;14.06;45.66;98780.38;5027976;28;20055;-59
2023/05/27 05:54:21;;;;;;;;;;;;;;;13.97;45.27;98779.53;5022334;28;19937;-60
2023/05/27 05:56:54;;;;;;;;;;;;;;;13.94;45.63;98780.13;5028618;28;20019;-58
2023/05/27 05:59:22;;;;;;;;;;;;;;;14.05;45.29;98774.09;5028432;28;19929;-61
2023/05/27 06:01:51;;;;;;;;;;;;;;;14.23;45.43;98783.22;5026870;28;19925;-58
2023/05/27 06:04:21;;;;;;;;;;;;;;;14.24;44.62;98773.09;5022810;28;19922;-59
2023/05/27 06:06:49;;;;;;;;;;;;;;;14.10;44.25;98784.09;5028085;28;20488;-59
2023/05/27 06:09:25;;;;;;;;;;;;;;;14.39;44.01;98786.34;5023337;28;20270;-59
2023/05/27 06:11:57;;;;;;;;;;;;;;;14.16;44.85;98775.44;5030362;28;19921;-58
2023/05/27 06:14:26;;;;;;;;;;;;;;;14.41;45.32;98786.81;5021682;28;20272;-59
2023/05/27 06:16:57;;;;;;;;;;;;;;;14.23;44.61;98779.69;5052940;28;19975;-60
2023/05/27 06:19:25;;;;;;;;;;;;;;;14.52;43.99;98790.91;5025451;28;19921;-59
2023/05/27 06:21:53;;;;;;;;;;;;;;;14.54;43.52;98783.22;5029378;28;19936;-57
2023/05/27 06:24:31;;;;;;;;;;;;;;;14.44;43.75;98788.94;5022937;28;19921;-58
2023/05/27 06:27:16;;;;;;;;;;;;;;;14.64;43.98;98790.31;5024896;28;20418;-58
2023/05/27 06:29:45;;;;;;;;;;;;;;;14.73;44.95;98790.34;5023218;28;20004;-63
2023/05/27 06:32:16;;;;;;;;;;;;;;;14.56;43.43;98786.44;5043154;28;20382;-59
2023/05/27 06:34:44;;;;;;;;;;;;;;;14.64;43.44;98780.19;5027924;28;19924;-58
2023/05/27 06:37:14;;;;;;;;;;;;;;;14.62;44.60;98784.38;5028665;28;19935;-58
2023/05/27 06:39:44;;;;;;;;;;;;;;;14.74;43.26;98776.34;5023638;28;19949;-57
2023/05/27 06:42:14;;;;;;;;;;;;;;;14.97;43.48;98782.56;5027748;28;19929;-58
2023/05/27 06:44:51;;;;;;;;;;;;;;;14.99;43.53;98777.56;5026826;28;19925;-59
2023/05/27 06:47:23;;;;;;;;;;;;;;;15.06;43.83;98779.81;5034853;28;20342;-62
2023/05/27 06:49:51;;;;;;;;;;;;;;;15.29;43.10;98770.34;5032474;28;20368;-57
2023/05/27 06:52:19;;;;;;;;;;;;;;;15.10;42.79;98767.91;5030428;28;19921;-59
2023/05/27 06:55:04;;;;;;;;;;;;;;;15.42;42.82;98777.59;5035050;28;19933;-58
2023/05/27 06:57:52;;;;;;;;;;;;;;;15.54;42.27;98771.47;5027725;28;19932;-58
2023/05/27 07:00:31;;;;;;;;;;;;;;;15.45;42.48;98767.94;5028291;28;20712;-58
2023/05/27 07:03:16;;;;;;;;;;;;;;;15.64;41.71;98765.69;5029146;28;19956;-58
2023/05/27 07:05:44;;;;;;;;;;;;;;;15.67;42.22;98769.75;5050691;28;19925;-60
2023/05/27 07:08:13;;;;;;;;;;;;;;;15.82;41.80;98761.03;5043793;28;19921;-62
2023/05/27 07:10:43;;;;;;;;;;;;;;;15.40;41.65;98773.59;5029939;28;19948;-58
2023/05/27 07:13:13;;;;;;;;;;;;;;;15.75;40.93;98773.59;5024993;28;20019;-58
2023/05/27 07:15:47;;;;;;;;;;;;;;;15.76;41.16;98776.00;5035118;28;19927;-58
2023/05/27 07:18:15;;;;;;;;;;;;;;;15.81;41.17;98775.03;5040448;28;19937;-58
2023/05/27 07:20:44;;;;;;;;;;;;;;;15.90;41.26;98773.88;5023812;28;19921;-59
2023/05/27 07:23:15;;;;;;;;;;;;;;;15.85;41.04;98765.03;5034314;28;19989;-59
2023/05/27 07:25:48;;;;;;;;;;;;;;;15.90;41.05;98768.41;5035236;28;19920;-58
2023/05/27 07:28:16;;;;;;;;;;;;;;;16.00;41.28;98769.19;5068204;28;19925;-58
2023/05/27 07:30:49;;;;;;;;;;;;;;;15.83;41.84;98773.59;5057331;28;19920;-58
2023/05/27 07:33:17;;;;;;;;;;;;;;;16.11;40.63;98765.78;5049116;28;19921;-61
2023/05/27 07:35:45;;;;;;;;;;;;;;;16.34;41.31;98765.53;5058713;28;19925;-58
2023/05/27 07:38:13;;;;;;;;;;;;;;;16.48;42.01;98766.13;5061470;28;19921;-63
2023/05/27 07:40:44;;;;;;;;;;;;;;;16.41;40.59;98760.38;5075101;28;19963;-59
2023/05/27 07:43:14;;;;;;;;;;;;;;;16.53;40.20;98757.72;5055461;28;19932;-59
2023/05/27 07:45:43;;;;;;;;;;;;;;;16.63;41.20;98757.34;5066904;28;19943;-59
2023/05/27 07:48:11;;;;;;;;;;;;;;;16.61;40.67;98745.91;5053800;28;19924;-65
2023/05/27 07:50:39;;;;;;;;;;;;;;;16.64;40.52;98745.25;5068479;28;20539;-59
2023/05/27 07:53:14;;;;;;;;;;;;;;;16.79;40.79;98749.41;5049017;28;19932;-59
2023/05/27 07:55:43;;;;;;;;;;;;;;;16.90;40.48;98744.31;5057199;28;19971;-60
2023/05/27 07:58:12;;;;;;;;;;;;;;;16.64;40.30;98742.50;5062557;28;19931;-63
2023/05/27 08:00:51;;;;;;;;;;;;;;;16.91;40.32;98745.94;5063548;28;20019;-61
2023/05/27 08:03:22;;;;;;;;;;;;;;;16.86;40.43;98748.88;5055654;28;19928;-60
2023/05/27 08:05:59;;;;;;;;;;;;;;;16.93;40.15;98743.66;5047179;28;19920;-60
2023/05/27 08:08:47;;;;;;;;;;;;;;;17.11;40.46;98738.88;5070551;28;19921;-60
2023/05/27 08:11:33;;;;;;;;;;;;;;;17.05;39.86;98741.00;5069082;28;19927;-60
2023/05/27 08:14:10;;;;;;;;;;;;;;;16.87;40.26;98734.81;5046101;28;20024;-60
2023/05/27 08:16:51;;;;;;;;;;;;;;;17.15;39.72;98724.13;5061242;28;19974;-60
2023/05/27 08:19:40;;;;;;;;;;;;;;;17.06;40.20;98726.13;5067202;28;19960;-63
2023/05/27 08:22:17;;;;;;;;;;;;;;;17.19;40.13;98729.75;5058316;28;20387;-59
2023/05/27 08:25:11;;;;;;;;;;;;;;;17.47;40.12;98730.81;5062984;28;20456;-59
2023/05/27 08:27:47;;;;;;;;;;;;;;;17.23;40.45;98726.00;5043680;28;20278;-62
2023/05/27 08:30:30;;;;;;;;;;;;;;;17.32;41.75;98725.13;5044069;28;19927;-60
2023/05/27 08:33:08;;;;;;;;;;;;;;;17.53;39.96;98728.66;5046382;28;20012;-60
2023/05/27 08:35:36;;;;;;;;;;;;;;;17.56;39.71;98711.50;5057768;28;19921;-60
2023/05/27 08:38:06;;;;;;;;;;;;;;;17.73;39.53;98718.78;5037943;28;20388;-59
2023/05/27 08:40:38;;;;;;;;;;;;;;;17.88;39.91;98718.16;5067302;28;20385;-58
2023/05/27 08:43:06;;;;;;;;;;;;;;;17.68;39.85;98714.28;5053427;28;19921;-58
2023/05/27 08:45:40;;;;;;;;;;;;;;;17.92;39.26;98716.34;5055322;28;19929;-58
2023/05/27 08:48:10;;;;;;;;;;;;;;;17.91;39.03;98716.69;5045458;28;20424;-59
2023/05/27 08:50:39;;;;;;;;;;;;;;;18.07;41.03;98701.13;5052708;28;19960;-60
2023/05/27 08:53:07;;;;;;;;;;;;;;;18.03;39.50;98702.94;5042094;28;20269;-59
2023/05/27 08:55:35;;;;;;;;;;;;;;;18.27;39.18;98708.50;5061119;28;19933;-61
2023/05/27 08:58:03;;;;;;;;;;;;;;;18.30;39.75;98705.03;5062011;28;20358;-60
2023/05/27 09:00:36;;;;;;;;;;;;;;;18.25;39.17;98710.78;5045648;28;19924;-59
2023/05/27 09:03:19;;;;;;;;;;;;;;;18.35;38.45;98703.22;5042439;28;19956;-63
2023/05/27 09:05:47;;;;;;;;;;;;;;;18.42;38.55;98703.44;5067186;28;20273;-60
2023/05/27 09:08:15;;;;;;;;;;;;;;;18.66;38.70;98691.63;5037637;28;19927;-62
2023/05/27 09:10:43;;;;;;;;;;;;;;;18.46;38.05;98693.38;5051393;28;19932;-59
2023/05/27 09:13:11;;;;;;;;;;;;;;;18.60;38.15;98693.81;5040048;28;19927;-59
2023/05/27 09:15:41;;;;;;;;;;;;;;;18.53;39.03;98694.38;5052088;28;19940;-58
2023/05/27 09:18:09;;;;;;;;;;;;;;;18.73;37.89;98691.88;5038096;28;19925;-60
2023/05/27 09:20:39;;;;;;;;;;;;;;;18.65;38.06;98696.34;5046053;28;20011;-59
2023/05/27 09:23:08;;;;;;;;;;;;;;;18.76;37.17;98697.50;5047606;28;19921;-61
2023/05/27 09:25:36;;;;;;;;;;;;;;;18.89;37.67;98701.03;5049345;28;19929;-61
2023/05/27 09:28:05;;;;;;;;;;;;;;;18.77;37.28;98692.81;5069238;28;19921;-59
2023/05/27 09:30:33;;;;;;;;;;;;;;;18.90;37.12;98688.88;5062342;28;19924;-59
2023/05/27 09:33:01;;;;;;;;;;;;;;;18.88;36.98;98687.63;5069694;28;19924;-59
2023/05/27 09:35:29;;;;;;;;;;;;;;;18.96;37.14;98683.91;5064213;28;20333;-60
2023/05/27 09:38:07;;;;;;;;;;;;;;;19.05;35.40;98684.59;5076339;28;19921;-60
2023/05/27 09:40:36;;;;;;;;;;;;;;;18.96;36.63;98682.00;5073815;28;19921;-59
2023/05/27 09:43:04;;;;;;;;;;;;;;;19.01;35.43;98680.94;5067468;28;19966;-59
2023/05/27 09:45:32;;;;;;;;;;;;;;;18.83;35.92;98678.44;5070321;28;19923;-60
2023/05/27 09:48:00;;;;;;;;;;;;;;;18.97;35.61;98674.53;5062208;28;20361;-61
2023/05/27 09:50:28;;;;;;;;;;;;;;;19.10;36.05;98671.38;5065395;28;19920;-62
2023/05/27 09:52:56;;;;;;;;;;;;;;;19.16;35.44;98671.94;5068181;28;19921;-63
2023/05/27 09:55:34;;;;;;;;;;;;;;;19.19;35.15;98668.50;5060084;28;20357;-61
2023/05/27 09:58:02;;;;;;;;;;;;;;;19.05;36.27;98676.31;5044711;28;20401;-61
2023/05/27 10:00:31;;;;;;;;;;;;;;;19.26;35.61;98662.38;5059317;28;19970;-60
2023/05/27 10:03:00;;;;;;;;;;;;;;;19.23;35.19;98652.88;5061328;28;19932;-60
2023/05/27 10:05:29;;;;;;;;;;;;;;;19.31;35.63;98656.63;5057038;28;19967;-65
2023/05/27 10:07:58;;;;;;;;;;;;;;;19.25;34.61;98647.81;5063765;28;20034;-62
2023/05/27 10:10:41;;;;;;;;;;;;;;;19.50;36.43;98650.47;5065655;28;19956;-63
2023/05/27 10:13:09;;;;;;;;;;;;;;;19.59;34.26;98651.91;5071187;28;19929;-62
2023/05/27 10:15:37;;;;;;;;;;;;;;;19.56;33.15;98636.06;5063145;28;20362;-62
2023/05/27 10:18:09;;;;;;;;;;;;;;;19.62;33.69;98642.16;5067279;28;19924;-61
2023/05/27 10:20:40;;;;;;;;;;;;;;;19.55;34.24;98639.97;5075947;28;19928;-63
2023/05/27 10:23:11;;;;;;;;;;;;;;;19.60;34.08;98644.44;5070590;28;20270;-61
2023/05/27 10:25:41;;;;;;;;;;;;;;;19.59;34.68;98642.84;5054353;28;19974;-62
2023/05/27 10:28:09;;;;;;;;;;;;;;;19.56;32.54;98636.06;5072187;28;19924;-63
2023/05/27 10:30:43;;;;;;;;;;;;;;;19.62;32.60;98637.44;5056317;28;20350;-62
2023/05/27 10:33:14;;;;;;;;;;;;;;;19.57;32.57;98636.88;5068370;28;19924;-62
2023/05/27 10:35:42;;;;;;;;;;;;;;;19.66;31.82;98629.28;5061087;28;20287;-61
2023/05/27 10:38:19;;;;;;;;;;;;;;;19.76;33.10;98623.25;5069150;28;19963;-61
2023/05/27 10:40:49;;;;;;;;;;;;;;;19.84;32.43;98619.50;5060053;28;19924;-62
2023/05/27 10:43:17;;;;;;;;;;;;;;;19.98;33.19;98615.50;5063391;28;19932;-62
2023/05/27 10:45:46;;;;;;;;;;;;;;;20.06;32.28;98626.34;5069128;28;19921;-62
2023/05/27 10:48:18;;;;;;;;;;;;;;;19.86;32.69;98614.41;5068579;28;19931;-62
2023/05/27 10:50:52;;;;;;;;;;;;;;;19.92;32.26;98608.63;5072542;28;20371;-62
2023/05/27 10:53:23;;;;;;;;;;;;;;;19.82;32.46;98609.97;5070502;28;19920;-66
2023/05/27 10:55:52;;;;;;;;;;;;;;;19.83;31.58;98612.38;5062309;28;19920;-61
2023/05/27 10:58:20;;;;;;;;;;;;;;;19.78;31.41;98604.38;5060220;28;19967;-63
2023/05/27 11:00:48;;;;;;;;;;;;;;;19.78;31.52;98615.41;5052734;28;19956;-62
2023/05/27 11:03:17;;;;;;;;;;;;;;;19.91;31.68;98601.53;5066353;28;19924;-62
2023/05/27 11:05:45;;;;;;;;;;;;;;;20.01;30.93;98606.50;5075220;28;20262;-62
2023/05/27 11:08:13;;;;;;;;;;;;;;;20.13;31.98;98604.47;5053419;28;20294;-63
2023/05/27 11:10:41;;;;;;;;;;;;;;;20.12;30.49;98607.56;5056967;28;20025;-61
2023/05/27 11:13:11;;;;;;;;;;;;;;;20.06;29.91;98598.75;5067208;28;19920;-62
2023/05/27 11:15:40;;;;;;;;;;;;;;;20.05;29.47;98596.38;5058326;28;20370;-62
2023/05/27 11:18:08;;;;;;;;;;;;;;;20.25;29.79;98594.47;5062974;28;19920;-62
2023/05/27 11:20:36;;;;;;;;;;;;;;;20.22;30.41;98592.41;5056769;28;19928;-61
2023/05/27 11:23:04;;;;;;;;;;;;;;;20.06;31.19;98593.25;5071182;28;20312;-63
2023/05/27 11:25:41;;;;;;;;;;;;;;;20.12;29.73;98588.25;5075079;28;20007;-62
2023/05/27 11:28:16;;;;;;;;;;;;;;;20.26;31.09;98588.59;5065881;28;20340;-67
2023/05/27 11:30:44;;;;;;;;;;;;;;;20.36;30.38;98584.47;5062722;28;19925;-62
2023/05/27 11:33:14;;;;;;;;;;;;;;;20.45;29.81;98582.31;5047564;28;20372;-61
2023/05/27 11:36:04;;;;;;;;;;;;;;;20.36;28.97;98585.28;5049897;28;20527;-62
2023/05/27 11:38:32;;;;;;;;;;;;;;;20.29;28.79;98578.78;5049158;28;20333;-64
2023/05/27 11:41:07;;;;;;;;;;;;;;;20.35;29.51;98572.66;5064839;28;20016;-61
2023/05/27 11:43:36;;;;;;;;;;;;;;;20.53;28.10;98563.97;5072495;28;20003;-62
2023/05/27 11:46:04;;;;;;;;;;;;;;;20.67;27.67;98567.06;5067923;28;20028;-60
2023/05/27 11:48:32;;;;;;;;;;;;;;;20.57;28.41;98562.91;5068674;28;19924;-61
2023/05/27 11:51:00;;;;;;;;;;;;;;;20.62;28.74;98559.84;5068069;28;20354;-62
2023/05/27 11:53:29;;;;;;;;;;;;;;;20.59;27.75;98554.25;5048939;28;19920;-62
2023/05/27 11:55:57;;;;;;;;;;;;;;;20.63;28.86;98555.94;5076089;28;20309;-62
2023/05/27 11:58:26;;;;;;;;;;;;;;;20.72;29.63;98541.91;5063505;28;19932;-66
2023/05/27 12:00:55;;;;;;;;;;;;;;;20.89;27.81;98538.72;5061057;28;20009;-62
2023/05/27 12:03:23;;;;;;;;;;;;;;;20.81;27.65;98548.00;5064600;28;19928;-62
2023/05/27 12:05:51;;;;;;;;;;;;;;;20.77;28.34;98540.81;5075743;28;20254;-61
2023/05/27 12:08:19;;;;;;;;;;;;;;;20.89;25.83;98538.72;5077066;28;19920;-60
2023/05/27 12:10:50;;;;;;;;;;;;;;;20.83;25.63;98529.13;5075085;28;20015;-61
2023/05/27 12:13:17;;;;;;;;;;;;;;;20.79;27.71;98525.50;5073842;28;20299;-61
2023/05/27 12:15:45;;;;;;;;;;;;;;;20.87;26.62;98516.16;5061597;28;19920;-61
2023/05/27 12:18:14;;;;;;;;;;;;;;;20.93;27.98;98513.91;5069083;28;19924;-61
2023/05/27 12:20:42;;;;;;;;;;;;;;;20.95;26.77;98519.09;5068619;28;20494;-68
2023/05/27 12:23:10;;;;;;;;;;;;;;;20.95;27.71;98503.31;5075719;28;19924;-65
2023/05/27 12:25:38;;;;;;;;;;;;;;;20.98;28.38;98510.06;5071788;28;19974;-61
2023/05/27 12:28:07;;;;;;;;;;;;;;;21.04;29.67;98508.59;5067191;28;19999;-66
2023/05/27 12:30:35;;;;;;;;;;;;;;;21.00;28.76;98508.53;5068851;28;19925;-63
2023/05/27 12:33:03;;;;;;;;;;;;;;;21.14;26.24;98497.72;5071239;28;19925;-62
2023/05/27 12:35:33;;;;;;;;;;;;;;;21.20;26.23;98501.03;5063483;28;20052;-61
2023/05/27 12:38:01;;;;;;;;;;;;;;;21.18;27.76;98498.59;5069921;28;19928;-63
2023/05/27 12:40:32;;;;;;;;;;;;;;;21.18;26.91;98493.09;5062799;28;19928;-61
2023/05/27 12:43:03;;;;;;;;;;;;;;;21.24;28.23;98496.34;5068001;28;19928;-62
2023/05/27 12:45:30;;;;;;;;;;;;;;;21.27;28.60;98495.63;5051259;28;19928;-60
2023/05/27 12:47:59;;;;;;;;;;;;;;;21.10;29.73;98491.38;5063173;28;19927;-62
2023/05/27 12:50:27;;;;;;;;;;;;;;;21.19;28.67;98475.31;5065907;28;19948;-63
2023/05/27 12:52:56;;;;;;;;;;;;;;;21.26;26.76;98476.66;5066905;28;19928;-61
2023/05/27 12:55:24;;;;;;;;;;;;;;;21.33;25.40;98476.78;5067949;28;20397;-63
2023/05/27 12:57:53;;;;;;;;;;;;;;;21.31;25.48;98473.59;5057417;28;20389;-61
2023/05/27 13:00:21;;;;;;;;;;;;;;;21.39;26.69;98478.88;5066315;28;19921;-62
2023/05/27 13:02:50;;;;;;;;;;;;;;;21.46;26.38;98478.19;5068205;28;19960;-62